Nebo, Missouri
Current Conditions -  °F | °C
As of 6:58 PM on Monday 24 Nov 2014 (Local Time) from KTBN Reporting Station
Overcast Overcast  
Wind Chill: 34°   Ceiling: 5000
Heat Index: 40°   Visibility: 10mi
Dew Point: 29°   Wind: 9mph
Humidity: 64%   Direction: 290°WNW
Pressure: 29.94"   Gusts: NA
Location:  37.6071°N, 92.343°W
Report Text: KTBN 250058Z AUTO 29008KT 10SM OVC050 05/M02 A2994 RMK AO2 SLP148 T00451018
Loading
Personal Weather Stations






























Interactive Weather Map New forecast layout! Learn more

10-Day Weather Forecast

Advertisements
Track Severe Weather on mobile